createdAt,value
2024-03-08T00:00:47.918Z,4.65
2024-03-08T00:03:17.260Z,4.65
2024-03-08T00:05:45.553Z,3.10
2024-03-08T00:08:13.333Z,3.63
2024-03-08T00:10:40.680Z,3.75
2024-03-08T00:13:08.585Z,3.80
2024-03-08T00:15:38.904Z,3.40
2024-03-08T00:18:07.528Z,2.90
2024-03-08T00:20:35.520Z,3.72
2024-03-08T00:23:02.498Z,4.05
2024-03-08T00:25:29.685Z,3.95
2024-03-08T00:28:01.191Z,5.22
2024-03-08T00:30:29.842Z,4.70
2024-03-08T00:32:56.969Z,4.35
2024-03-08T00:35:25.629Z,2.92
2024-03-08T00:37:52.549Z,3.53
2024-03-08T00:40:21.022Z,4.07
2024-03-08T00:42:51.894Z,4.13
2024-03-08T00:45:18.731Z,4.13
2024-03-08T00:47:49.545Z,3.92
2024-03-08T00:50:19.605Z,3.53
2024-03-08T00:52:47.778Z,4.13
2024-03-08T00:55:17.108Z,4.20
2024-03-08T00:57:50.109Z,4.18
2024-03-08T01:00:22.292Z,4.55
2024-03-08T01:02:49.649Z,4.25
2024-03-08T01:05:17.360Z,3.75
2024-03-08T01:07:48.318Z,3.85
2024-03-08T01:10:15.108Z,3.80
2024-03-08T01:12:42.792Z,4.35
2024-03-08T01:15:14.237Z,4.10
2024-03-08T01:17:42.603Z,3.75
2024-03-08T01:20:12.292Z,3.83
2024-03-08T01:22:39.932Z,3.60
2024-03-08T01:25:10.052Z,4.05
2024-03-08T01:27:39.179Z,4.25
2024-03-08T01:30:08.149Z,5.15
2024-03-08T01:32:35.271Z,4.55
2024-03-08T01:35:06.360Z,3.60
2024-03-08T01:37:34.242Z,3.58
2024-03-08T01:40:05.513Z,3.97
2024-03-08T01:42:33.036Z,4.53
2024-03-08T01:45:01.690Z,3.72
2024-03-08T01:47:34.178Z,4.75
2024-03-08T01:50:07.989Z,4.65
2024-03-08T01:52:36.516Z,4.32
2024-03-08T01:55:08.905Z,4.43
2024-03-08T01:57:37.313Z,4.78
2024-03-08T02:02:38.628Z,3.60
2024-03-08T02:05:06.664Z,4.88
2024-03-08T02:07:34.099Z,3.97
2024-03-08T02:10:05.641Z,3.92
2024-03-08T02:12:32.780Z,3.85
2024-03-08T02:15:08.077Z,3.95
2024-03-08T02:17:37.171Z,4.00
2024-03-08T02:20:06.055Z,5.05
2024-03-08T02:22:35.528Z,4.57
2024-03-08T02:25:06.522Z,4.88
2024-03-08T02:30:03.539Z,3.67
2024-03-08T02:32:31.456Z,4.97
2024-03-08T02:35:01.651Z,4.05
2024-03-08T02:37:30.223Z,5.28
2024-03-08T02:39:58.325Z,4.22
2024-03-08T02:42:25.780Z,4.00
2024-03-08T02:44:58.222Z,3.55
2024-03-08T02:47:28.959Z,5.20
2024-03-08T02:49:58.072Z,3.53
2024-03-08T02:52:28.328Z,4.53
2024-03-08T02:54:57.431Z,3.42
2024-03-08T02:57:28.456Z,3.95
2024-03-08T03:00:05.663Z,4.25
2024-03-08T03:02:36.347Z,4.47
2024-03-08T03:05:06.650Z,4.32
2024-03-08T03:07:45.590Z,4.05
2024-03-08T03:10:13.508Z,4.20
2024-03-08T03:12:44.245Z,4.65
2024-03-08T03:15:20.196Z,4.00
2024-03-08T03:17:48.877Z,4.13
2024-03-08T03:20:23.903Z,4.20
2024-03-08T03:22:54.695Z,3.92
2024-03-08T03:25:30.089Z,5.15
2024-03-08T03:27:58.083Z,4.38
2024-03-08T03:30:28.351Z,3.90
2024-03-08T03:32:58.196Z,4.38
2024-03-08T03:35:28.047Z,3.88
2024-03-08T03:38:08.784Z,4.25
2024-03-08T03:40:39.524Z,4.63
2024-03-08T03:43:09.547Z,3.88
2024-03-08T03:45:39.090Z,4.40
2024-03-08T03:48:10.728Z,4.30
2024-03-08T03:50:38.595Z,4.20
2024-03-08T03:53:08.734Z,4.40
2024-03-08T03:55:38.223Z,4.25
2024-03-08T03:58:05.358Z,4.35
2024-03-08T04:00:32.016Z,4.72
2024-03-08T04:03:02.357Z,4.47
2024-03-08T04:05:30.922Z,4.60
2024-03-08T04:07:59.078Z,3.97
2024-03-08T04:10:27.615Z,5.90
2024-03-08T04:13:02.364Z,5.50
2024-03-08T04:15:29.427Z,4.78
2024-03-08T04:17:59.106Z,5.53
2024-03-08T04:20:27.257Z,4.65
2024-03-08T04:22:55.714Z,4.47
2024-03-08T04:25:24.704Z,4.45
2024-03-08T04:27:56.238Z,4.70
2024-03-08T04:30:23.238Z,5.10
2024-03-08T04:32:54.384Z,4.82
2024-03-08T04:35:21.534Z,5.03
2024-03-08T04:37:48.659Z,5.55
2024-03-08T04:40:17.076Z,5.05
2024-03-08T04:42:47.198Z,4.78
2024-03-08T04:45:16.250Z,5.18
2024-03-08T04:47:46.062Z,5.15
2024-03-08T04:50:13.170Z,5.63
2024-03-08T04:52:39.917Z,5.13
2024-03-08T04:55:09.066Z,6.38
2024-03-08T04:57:41.616Z,4.97
2024-03-08T05:00:12.378Z,5.28
2024-03-08T05:02:42.864Z,5.25
2024-03-08T05:05:16.327Z,5.07
2024-03-08T05:07:47.228Z,5.72
2024-03-08T05:10:18.491Z,6.68
2024-03-08T05:12:46.858Z,4.53
2024-03-08T05:15:15.765Z,6.60
2024-03-08T05:17:45.900Z,5.30
2024-03-08T05:20:14.671Z,5.68
2024-03-08T05:22:41.749Z,4.90
2024-03-08T05:25:10.200Z,5.30
2024-03-08T05:27:39.599Z,6.32
2024-03-08T05:30:06.852Z,5.95
2024-03-08T05:32:34.798Z,6.47
2024-03-08T05:37:32.597Z,6.10
2024-03-08T05:39:59.339Z,5.70
2024-03-08T05:42:26.077Z,6.25
2024-03-08T05:44:55.253Z,6.93
2024-03-08T05:47:22.062Z,5.00
2024-03-08T05:49:50.329Z,6.15
2024-03-08T05:52:17.766Z,5.38
2024-03-08T05:54:47.753Z,6.97
2024-03-08T05:57:16.451Z,7.68
2024-03-08T05:59:45.520Z,5.47
2024-03-08T06:02:12.431Z,6.13
2024-03-08T06:04:44.565Z,6.82
2024-03-08T06:07:13.805Z,6.25
2024-03-08T06:09:41.848Z,5.38
2024-03-08T06:12:12.364Z,6.55
2024-03-08T06:14:41.559Z,6.50
2024-03-08T06:17:08.706Z,7.70
2024-03-08T06:19:37.925Z,5.93
2024-03-08T06:22:07.805Z,6.32
2024-03-08T06:24:37.867Z,6.00
2024-03-08T06:27:05.542Z,7.18
2024-03-08T06:29:32.485Z,8.75
2024-03-08T06:32:01.678Z,7.03
2024-03-08T06:34:29.905Z,8.18
2024-03-08T06:37:02.132Z,8.18
2024-03-08T06:39:33.024Z,7.22
2024-03-08T06:42:02.558Z,6.85
2024-03-08T06:44:29.846Z,6.78
2024-03-08T06:47:00.642Z,8.32
2024-03-08T06:49:28.128Z,7.63
2024-03-08T06:51:57.513Z,8.25
2024-03-08T06:54:26.065Z,7.15
2024-03-08T06:56:57.342Z,6.78
2024-03-08T06:59:24.240Z,7.80
2024-03-08T07:01:51.559Z,7.93
2024-03-08T07:04:21.315Z,7.90
2024-03-08T07:06:51.279Z,7.88
2024-03-08T07:09:19.337Z,7.60
2024-03-08T07:11:47.877Z,8.27
2024-03-08T07:14:16.757Z,8.10
2024-03-08T07:16:48.340Z,8.93
2024-03-08T07:19:16.747Z,6.78
2024-03-08T07:21:50.455Z,9.45
2024-03-08T07:24:41.129Z,7.35
2024-03-08T07:27:09.111Z,9.00
2024-03-08T07:29:38.854Z,9.85
2024-03-08T07:32:24.640Z,8.77
2024-03-08T07:34:52.233Z,8.18
2024-03-08T07:37:20.568Z,8.35
2024-03-08T07:39:47.705Z,9.38
2024-03-08T07:42:17.005Z,9.35
2024-03-08T07:44:44.664Z,9.25
2024-03-08T07:47:11.719Z,9.93
2024-03-08T07:49:38.720Z,8.15
2024-03-08T07:52:08.585Z,8.88
2024-03-08T07:54:38.421Z,7.72
2024-03-08T07:57:05.714Z,10.27
2024-03-08T07:59:35.135Z,11.13
2024-03-08T08:02:02.052Z,10.20
2024-03-08T08:04:32.421Z,9.05
2024-03-08T08:07:01.692Z,10.63
2024-03-08T08:09:37.090Z,8.82
2024-03-08T08:12:04.819Z,8.13
2024-03-08T08:14:32.106Z,8.55
2024-03-08T08:17:02.781Z,9.48
2024-03-08T08:19:30.003Z,9.32
2024-03-08T08:21:58.956Z,7.45
2024-03-08T08:24:35.060Z,9.30
2024-03-08T08:27:01.937Z,6.57
2024-03-08T08:29:28.699Z,8.00
2024-03-08T08:31:57.750Z,9.00
2024-03-08T08:34:25.605Z,8.35
2024-03-08T08:36:54.432Z,7.75
2024-03-08T08:39:24.520Z,7.50
2024-03-08T08:41:53.707Z,6.72
2024-03-08T08:44:22.290Z,9.07
2024-03-08T08:46:51.560Z,8.35
2024-03-08T08:49:21.895Z,8.00
2024-03-08T08:51:52.909Z,9.68
2024-03-08T08:54:23.308Z,10.75
2024-03-08T08:56:50.826Z,10.48
2024-03-08T08:59:41.612Z,10.70
2024-03-08T09:02:19.050Z,10.60
2024-03-08T09:04:46.838Z,9.75
2024-03-08T09:07:15.051Z,10.02
2024-03-08T09:09:45.986Z,9.77
2024-03-08T09:12:14.559Z,10.13
2024-03-08T09:14:42.561Z,11.27
2024-03-08T09:17:10.679Z,11.43
2024-03-08T09:19:39.006Z,11.20
2024-03-08T09:22:06.797Z,10.85
2024-03-08T09:27:06.503Z,11.48
2024-03-08T09:29:39.156Z,11.68
2024-03-08T09:32:08.582Z,11.13
2024-03-08T09:34:38.845Z,13.93
2024-03-08T09:37:07.202Z,11.05
2024-03-08T09:39:35.162Z,12.32
2024-03-08T09:44:37.869Z,9.60
2024-03-08T09:49:39.133Z,9.55
2024-03-08T09:52:06.388Z,10.25
2024-03-08T09:54:33.294Z,11.45
2024-03-08T09:57:04.898Z,10.50
2024-03-08T09:59:45.642Z,11.70
2024-03-08T10:02:27.991Z,11.77
2024-03-08T10:04:58.873Z,11.48
2024-03-08T10:07:33.546Z,11.25
2024-03-08T10:10:00.810Z,10.65
2024-03-08T10:12:29.629Z,12.25
2024-03-08T10:15:01.873Z,11.20
2024-03-08T10:17:36.347Z,11.55
2024-03-08T10:20:17.202Z,11.52
2024-03-08T10:22:54.327Z,10.20
2024-03-08T10:25:36.955Z,11.43
2024-03-08T10:28:07.204Z,10.43
2024-03-08T10:30:35.031Z,10.90
2024-03-08T10:33:03.674Z,11.80
2024-03-08T10:35:30.561Z,12.60
2024-03-08T10:38:04.012Z,12.35
2024-03-08T10:40:34.188Z,12.90
2024-03-08T10:43:05.388Z,13.23
2024-03-08T10:45:44.054Z,12.13
2024-03-08T10:48:39.572Z,9.80
2024-03-08T10:51:10.140Z,11.75
2024-03-08T10:53:45.535Z,11.52
2024-03-08T10:56:13.089Z,8.95
2024-03-08T10:58:42.179Z,11.88
2024-03-08T11:01:13.076Z,10.35
2024-03-08T11:03:44.253Z,9.30
2024-03-08T11:06:39.440Z,11.40
2024-03-08T11:09:32.052Z,11.77
2024-03-08T11:12:30.391Z,9.27
2024-03-08T11:15:04.472Z,11.93
2024-03-08T11:17:46.156Z,10.55
2024-03-08T11:20:22.881Z,12.07
2024-03-08T11:23:11.743Z,11.32
2024-03-08T11:25:45.391Z,12.65
2024-03-08T11:28:28.862Z,9.93
2024-03-08T11:31:01.674Z,10.80
2024-03-08T11:33:33.844Z,12.05
2024-03-08T11:36:13.140Z,14.05
2024-03-08T11:38:50.445Z,11.85
2024-03-08T11:41:22.993Z,11.95
2024-03-08T11:43:51.445Z,10.80
2024-03-08T11:46:19.319Z,13.18
2024-03-08T11:51:19.523Z,10.52
2024-03-08T11:53:48.520Z,9.50
2024-03-08T11:56:18.545Z,13.75
2024-03-08T11:59:02.769Z,9.93
2024-03-08T12:01:33.358Z,13.10
2024-03-08T12:21:20.250Z,12.30
2024-03-08T12:23:57.110Z,11.90
2024-03-08T12:26:27.331Z,11.48
2024-03-08T12:29:15.214Z,12.60
2024-03-08T12:31:43.815Z,13.70
2024-03-08T12:34:12.663Z,12.07
2024-03-08T12:36:45.138Z,10.15
2024-03-08T12:39:18.987Z,10.52
2024-03-08T12:41:49.042Z,12.48
2024-03-08T12:44:23.094Z,12.50
2024-03-08T12:46:53.725Z,9.02
2024-03-08T12:49:25.754Z,11.43
2024-03-08T12:51:54.484Z,12.25
2024-03-08T12:54:28.246Z,11.68
2024-03-08T12:57:01.751Z,11.23
2024-03-08T12:59:29.903Z,10.90
2024-03-08T13:02:00.009Z,9.88
2024-03-08T13:04:28.622Z,10.88
2024-03-08T13:06:57.301Z,11.05
2024-03-08T13:09:28.946Z,10.35
2024-03-08T13:12:01.055Z,8.90
2024-03-08T13:14:28.730Z,10.93
2024-03-08T13:17:02.317Z,10.82
2024-03-08T13:19:30.136Z,8.57
2024-03-08T13:21:59.732Z,12.30
2024-03-08T13:24:28.142Z,11.18
2024-03-08T13:26:58.607Z,11.52
2024-03-08T13:29:25.967Z,12.60
2024-03-08T13:31:57.324Z,9.23
2024-03-08T13:34:38.417Z,9.90
2024-03-08T13:37:08.241Z,11.73
2024-03-08T13:39:41.998Z,9.82
2024-03-08T13:42:14.166Z,10.73
2024-03-08T13:44:46.147Z,10.48
2024-03-08T13:47:16.136Z,10.98
2024-03-08T13:49:47.234Z,10.25
2024-03-08T13:52:16.122Z,11.02
2024-03-08T13:54:45.068Z,10.30
2024-03-08T13:57:14.072Z,9.02
2024-03-08T13:59:42.204Z,10.35
2024-03-08T14:02:18.643Z,12.68
2024-03-08T14:04:49.983Z,11.68
2024-03-08T14:07:17.519Z,12.25
2024-03-08T14:09:45.018Z,11.80
2024-03-08T14:12:13.066Z,11.38
2024-03-08T14:17:08.521Z,10.48
2024-03-08T14:19:36.560Z,8.88
2024-03-08T14:22:05.596Z,9.85
2024-03-08T14:24:32.637Z,10.68
2024-03-08T14:27:00.606Z,10.48
2024-03-08T14:32:01.090Z,8.40
2024-03-08T14:34:31.372Z,11.63
2024-03-08T14:37:03.037Z,10.57
2024-03-08T14:39:31.022Z,8.57
2024-03-08T14:42:02.443Z,9.02
2024-03-08T14:44:32.096Z,12.23
2024-03-08T14:47:03.330Z,12.90
2024-03-08T14:49:48.033Z,11.32
2024-03-08T14:52:31.020Z,12.48
2024-03-08T14:55:04.364Z,11.60
2024-03-08T14:57:33.952Z,12.73
2024-03-08T15:00:18.195Z,9.88
2024-03-08T15:02:45.414Z,11.75
2024-03-08T15:05:14.963Z,4.43
2024-03-08T15:07:43.803Z,3.03
2024-03-08T15:10:17.873Z,2.22
2024-03-08T15:13:02.215Z,2.63
2024-03-08T15:15:31.685Z,1.77
2024-03-08T15:18:06.319Z,1.08
2024-03-08T15:20:38.595Z,0.93
2024-03-08T15:23:05.658Z,0.90
2024-03-08T15:25:37.962Z,1.25
2024-03-08T15:29:05.266Z,1.98
2024-03-08T15:31:33.841Z,1.75
2024-03-08T15:37:19.374Z,1.95
2024-03-08T15:39:48.268Z,1.67
2024-03-08T15:45:02.931Z,1.45
2024-03-08T15:47:58.565Z,1.63
2024-03-08T15:50:26.570Z,1.27
2024-03-08T15:53:15.528Z,1.63
2024-03-08T15:55:42.531Z,1.85
2024-03-08T15:58:13.878Z,1.50
2024-03-08T16:03:35.223Z,1.90
2024-03-08T16:06:02.054Z,2.65
2024-03-08T16:08:29.428Z,1.88
2024-03-08T16:10:58.528Z,1.80
2024-03-08T16:16:24.337Z,2.63
2024-03-08T16:22:15.235Z,1.65
2024-03-08T16:28:17.160Z,2.03
2024-03-08T16:31:04.611Z,2.30
2024-03-08T16:36:50.681Z,1.70
2024-03-08T16:39:20.280Z,1.58
2024-03-08T16:41:48.367Z,1.50
2024-03-08T16:44:25.502Z,1.77
2024-03-08T16:46:53.276Z,1.52
2024-03-08T16:49:20.739Z,1.20
2024-03-08T16:51:47.518Z,1.50
2024-03-08T16:54:18.989Z,1.98
2024-03-08T16:56:54.379Z,1.63
2024-03-08T17:08:16.607Z,2.03
2024-03-08T17:11:12.366Z,2.47
2024-03-08T17:13:42.142Z,1.77
2024-03-08T17:16:18.831Z,1.35
2024-03-08T17:22:46.009Z,1.20
2024-03-08T17:35:59.928Z,1.67
2024-03-08T17:38:27.579Z,1.38
2024-03-08T17:40:55.824Z,1.60
2024-03-08T17:43:25.179Z,1.17
2024-03-08T17:45:54.229Z,2.05
2024-03-08T17:48:26.727Z,1.30
2024-03-08T17:50:55.460Z,1.00
2024-03-08T17:53:22.394Z,1.02
2024-03-08T17:55:53.041Z,1.45
2024-03-08T17:58:21.718Z,1.33
2024-03-08T18:00:59.053Z,1.70
2024-03-08T18:03:29.598Z,1.45
2024-03-08T18:05:57.665Z,1.90
2024-03-08T18:08:26.562Z,1.00
2024-03-08T18:10:54.874Z,1.23
2024-03-08T18:13:22.508Z,1.20
2024-03-08T18:15:50.723Z,1.50
2024-03-08T18:20:48.156Z,1.40
2024-03-08T18:23:16.722Z,1.58
2024-03-08T18:25:46.621Z,0.95
2024-03-08T18:28:14.458Z,1.52
2024-03-08T18:30:45.021Z,1.23
2024-03-08T18:33:15.548Z,1.25
2024-03-08T18:35:43.244Z,1.08
2024-03-08T18:38:11.045Z,1.40
2024-03-08T18:40:46.263Z,1.40
2024-03-08T18:43:14.307Z,0.70
2024-03-08T18:45:43.617Z,1.00
2024-03-08T18:48:13.241Z,1.25
2024-03-08T18:50:40.768Z,1.20
2024-03-08T18:53:17.875Z,0.98
2024-03-08T18:55:47.384Z,1.33
2024-03-08T18:58:19.846Z,1.15
2024-03-08T19:00:51.807Z,1.20
2024-03-08T19:03:18.882Z,1.52
2024-03-08T19:05:47.630Z,0.95
2024-03-08T19:08:18.457Z,2.03
2024-03-08T19:10:45.358Z,1.40
2024-03-08T19:13:15.400Z,1.02
2024-03-08T19:15:43.568Z,1.00
2024-03-08T19:18:13.818Z,1.80
2024-03-08T19:20:42.786Z,1.38
2024-03-08T19:23:10.649Z,1.23
2024-03-08T19:26:02.077Z,1.73
2024-03-08T19:28:30.935Z,1.50
2024-03-08T19:30:59.694Z,1.63
2024-03-08T19:35:54.308Z,1.42
2024-03-08T19:38:22.359Z,2.45
2024-03-08T19:40:53.105Z,1.23
2024-03-08T19:43:21.164Z,1.23
2024-03-08T19:45:50.852Z,1.00
2024-03-08T19:48:22.774Z,1.00
2024-03-08T19:50:51.165Z,1.02
2024-03-08T19:53:19.609Z,1.25
2024-03-08T19:55:54.881Z,0.90
2024-03-08T19:58:22.843Z,0.60
2024-03-08T20:00:50.378Z,1.05
2024-03-08T20:03:23.703Z,0.90
2024-03-08T20:05:56.440Z,1.15
2024-03-08T20:08:30.956Z,1.30
2024-03-08T20:11:10.879Z,1.83
2024-03-08T20:13:38.898Z,1.25
2024-03-08T20:16:06.116Z,0.98
2024-03-08T20:18:33.839Z,1.38
2024-03-08T20:21:05.136Z,1.42
2024-03-08T20:23:34.414Z,1.52
2024-03-08T20:26:06.719Z,1.45
2024-03-08T20:28:34.003Z,2.13
2024-03-08T20:31:02.817Z,2.15
2024-03-08T20:33:31.837Z,1.80
2024-03-08T20:35:59.574Z,1.80
2024-03-08T20:38:27.633Z,1.85
2024-03-08T20:40:55.275Z,1.77
2024-03-08T20:43:23.309Z,1.63
2024-03-08T20:45:53.831Z,1.88
2024-03-08T20:48:22.361Z,1.73
2024-03-08T20:50:50.825Z,1.70
2024-03-08T20:55:51.260Z,2.22
2024-03-08T20:58:20.014Z,1.38
2024-03-08T21:00:56.132Z,2.17
2024-03-08T21:03:26.557Z,2.60
2024-03-08T21:05:55.790Z,1.52
2024-03-08T21:08:26.903Z,2.67
2024-03-08T21:10:55.233Z,2.80
2024-03-08T21:13:25.934Z,2.10
2024-03-08T21:15:54.851Z,2.13
2024-03-08T21:18:24.007Z,1.88
2024-03-08T21:20:52.134Z,1.60
2024-03-08T21:23:22.428Z,1.92
2024-03-08T21:25:49.707Z,1.08
2024-03-08T21:28:18.958Z,1.63
2024-03-08T21:30:50.234Z,1.50
2024-03-08T21:33:18.149Z,1.65
2024-03-08T21:35:45.197Z,1.77
2024-03-08T21:38:16.564Z,1.42
2024-03-08T21:43:13.442Z,1.45
2024-03-08T21:45:40.407Z,1.35
2024-03-08T21:48:08.662Z,1.17
2024-03-08T21:50:38.138Z,2.42
2024-03-08T21:53:14.183Z,1.33
2024-03-08T21:55:49.236Z,1.05
2024-03-08T21:58:16.341Z,1.33
2024-03-08T22:00:45.505Z,1.33
2024-03-08T22:03:13.351Z,1.15
2024-03-08T22:05:42.065Z,1.20
2024-03-08T22:08:10.124Z,1.17
2024-03-08T22:10:39.890Z,1.05
2024-03-08T22:13:09.064Z,1.55
2024-03-08T22:15:39.589Z,1.35
2024-03-08T22:18:09.885Z,1.15
2024-03-08T22:20:38.842Z,1.55
2024-03-08T22:23:07.561Z,1.50
2024-03-08T22:25:35.198Z,1.58
2024-03-08T22:28:04.722Z,1.85
2024-03-08T22:30:31.871Z,2.28
2024-03-08T22:33:00.200Z,2.08
2024-03-08T22:35:31.284Z,2.22
2024-03-08T22:38:00.223Z,1.60
2024-03-08T22:40:28.737Z,2.80
2024-03-08T22:42:56.982Z,1.48
2024-03-08T22:45:25.703Z,1.70
2024-03-08T22:47:53.084Z,1.77
2024-03-08T22:50:20.744Z,1.58
2024-03-08T22:52:50.102Z,1.83
2024-03-08T22:55:22.877Z,1.83
2024-03-08T22:57:53.375Z,1.60
2024-03-08T23:00:24.292Z,1.13
2024-03-08T23:02:53.981Z,2.38
2024-03-08T23:05:28.958Z,1.45
2024-03-08T23:08:01.213Z,1.83
2024-03-08T23:10:29.301Z,2.05
2024-03-08T23:12:57.925Z,1.40
2024-03-08T23:15:30.983Z,1.08
2024-03-08T23:18:00.140Z,1.92
2024-03-08T23:23:18.312Z,1.70
2024-03-08T23:25:46.191Z,1.58
2024-03-08T23:28:14.207Z,2.38
2024-03-08T23:30:51.604Z,2.10
2024-03-08T23:33:21.428Z,2.17
2024-03-08T23:35:49.238Z,1.45
2024-03-08T23:38:16.350Z,1.58
2024-03-08T23:40:47.012Z,1.52
2024-03-08T23:43:16.789Z,1.70
2024-03-08T23:48:27.765Z,1.17
2024-03-08T23:50:54.994Z,1.52
2024-03-08T23:53:21.700Z,1.88
2024-03-08T23:55:48.583Z,1.33
2024-03-08T23:58:15.341Z,1.60
